Time;durP1;ratioP1;P1;durP2;ratioP2;P2;SDS_P1;SDS_P2;PMS_P1;PMS_P2;Temp;Humidity;BMP_temperature;BMP_pressure;BME280_temperature;BME280_humidity;BME280_pressure;Samples;Min_cycle;Max_cycle;Signal;HPM_P1;HPM_P2
2023/01/28 00:04:06;;;;;;;28.60;15.50;;;;;;;-0.04;84.98;100520.80;211509;1296;140381;-64
2023/01/28 00:09:09;;;;;;;26.40;14.90;;;;;;;-0.01;85.24;100519.14;210334;1306;140414;-66
2023/01/28 00:14:13;;;;;;;18.10;10.80;;;;;;;-0.00;85.29;100523.04;210598;1299;142399;-65
2023/01/28 00:19:15;;;;;;;23.30;13.10;;;;;;;-0.03;85.18;100527.51;211415;1299;140239;-63
2023/01/28 00:24:18;;;;;;;23.50;13.80;;;;;;;-0.10;84.75;100525.91;209971;1302;142170;-66
2023/01/28 00:29:20;;;;;;;26.40;14.30;;;;;;;-0.14;84.66;100530.84;210217;1297;141437;-63
2023/01/28 00:34:22;;;;;;;25.00;14.40;;;;;;;-0.17;84.95;100526.11;210396;1300;141017;-61
2023/01/28 00:39:26;;;;;;;26.50;14.30;;;;;;;-0.19;85.36;100526.59;210292;1301;140462;-63
2023/01/28 00:44:28;;;;;;;25.10;12.30;;;;;;;-0.19;85.34;100532.24;210228;1299;140676;-60
2023/01/28 00:49:30;;;;;;;28.40;13.40;;;;;;;-0.21;85.30;100530.96;211519;1291;141169;-62
2023/01/28 00:54:32;;;;;;;24.50;11.40;;;;;;;-0.19;85.20;100533.40;210530;1301;140048;-62
2023/01/28 00:59:36;;;;;;;22.20;13.30;;;;;;;-0.16;85.44;100533.85;210969;1299;140795;-62
2023/01/28 01:04:40;;;;;;;22.60;13.20;;;;;;;-0.18;85.40;100533.30;211921;1298;140332;-65
2023/01/28 01:09:43;;;;;;;23.40;14.10;;;;;;;-0.18;85.42;100530.23;210042;1296;141083;-65
2023/01/28 01:14:45;;;;;;;22.20;12.60;;;;;;;-0.17;85.83;100530.58;212016;1296;143964;-65
2023/01/28 01:19:48;;;;;;;25.40;14.10;;;;;;;-0.16;85.28;100529.08;211422;1290;142958;-67
2023/01/28 01:24:51;;;;;;;20.30;11.00;;;;;;;-0.15;85.62;100522.18;211571;1297;140844;-65
2023/01/28 01:29:54;;;;;;;19.90;11.80;;;;;;;-0.15;85.44;100526.60;212757;1298;140784;-66
2023/01/28 01:34:58;;;;;;;22.30;10.40;;;;;;;-0.17;85.42;100532.52;211572;1299;140639;-64
2023/01/28 01:40:03;;;;;;;15.60;11.10;;;;;;;-0.15;85.43;100534.48;212682;1298;140628;-66
2023/01/28 01:45:16;;;;;;;15.00;10.60;;;;;;;-0.14;85.21;100533.13;212442;1298;140230;-65
2023/01/28 01:50:35;;;;;;;22.40;11.30;;;;;;;-0.13;85.33;100535.45;210167;1305;140776;-67
2023/01/28 01:55:39;;;;;;;;;;;;;;;-0.09;85.36;100537.88;209833;1292;140721;-70
2023/01/28 02:00:42;;;;;;;21.10;12.20;;;;;;;-0.08;85.58;100536.59;210323;1291;126400;-69
2023/01/28 02:05:44;;;;;;;25.60;12.30;;;;;;;-0.08;85.74;100534.81;209981;1293;141648;-66
2023/01/28 02:10:55;;;;;;;18.50;10.60;;;;;;;-0.10;85.60;100536.73;210555;1291;140617;-65
2023/01/28 02:15:59;;;;;;;21.30;11.70;;;;;;;-0.15;85.66;100535.80;210621;1298;140513;-65
2023/01/28 02:21:20;;;;;;;22.40;11.50;;;;;;;-0.17;85.74;100535.98;210402;1290;140857;-65
2023/01/28 02:26:43;;;;;;;21.00;10.70;;;;;;;-0.22;85.81;100542.23;210176;1297;140973;-65
2023/01/28 02:32:10;;;;;;;25.80;11.80;;;;;;;-0.25;85.77;100539.58;210854;1298;140347;-64
2023/01/28 02:37:53;;;;;;;23.50;12.30;;;;;;;-0.24;85.78;100547.05;211153;1290;140720;-65
2023/01/28 02:42:57;;;;;;;15.90;9.80;;;;;;;-0.28;86.10;100545.68;210931;1296;140324;-64
2023/01/28 02:48:00;;;;;;;15.70;10.30;;;;;;;-0.35;86.01;100542.09;211443;1292;140670;-65
2023/01/28 02:53:45;;;;;;;17.60;9.70;;;;;;;-0.37;86.23;100542.44;210321;1285;140232;-65
2023/01/28 02:58:54;;;;;;;22.50;10.60;;;;;;;-0.37;86.26;100546.85;210880;1301;140041;-66
2023/01/28 03:04:00;;;;;;;11.50;8.20;;;;;;;-0.36;86.71;100547.09;211071;1296;140709;-65
2023/01/28 03:09:21;;;;;;;18.10;10.10;;;;;;;-0.36;86.34;100551.97;211983;1291;142471;-64
2023/01/28 03:41:37;;;;;;;20.40;10.40;;;;;;;-0.30;86.98;100552.67;210969;1297;140591;-68
2023/01/28 03:46:39;;;;;;;22.50;10.90;;;;;;;-0.35;86.95;100553.79;210240;1306;140629;-68
2023/01/28 03:51:41;;;;;;;20.00;12.20;;;;;;;-0.40;86.97;100560.16;210128;1290;140094;-69
2023/01/28 03:56:44;;;;;;;17.60;11.50;;;;;;;-0.39;86.82;100559.09;209853;1283;140878;-66
2023/01/28 04:01:49;;;;;;;22.90;10.60;;;;;;;-0.43;86.90;100550.37;211548;1291;140363;-63
2023/01/28 04:06:53;;;;;;;16.50;11.40;;;;;;;-0.39;87.37;100552.29;210371;1298;140898;-64
2023/01/28 04:11:57;;;;;;;19.30;11.70;;;;;;;-0.33;87.29;100554.55;210218;1291;140920;-63
2023/01/28 04:17:01;;;;;;;16.90;11.30;;;;;;;-0.33;87.10;100549.32;210460;1284;140178;-63
2023/01/28 04:22:06;;;;;;;15.50;10.40;;;;;;;-0.37;87.37;100550.88;210493;1285;150979;-63
2023/01/28 04:27:09;;;;;;;12.80;9.50;;;;;;;-0.41;87.39;100551.19;210321;1297;141038;-64
2023/01/28 04:32:13;;;;;;;20.50;10.10;;;;;;;-0.43;87.38;100552.08;210152;1284;139275;-66
2023/01/28 04:37:17;;;;;;;19.60;11.10;;;;;;;-0.48;87.29;100560.45;211486;1298;140249;-64
2023/01/28 04:42:20;;;;;;;20.30;11.00;;;;;;;-0.51;87.75;100563.31;210283;1289;141085;-64
2023/01/28 04:47:23;;;;;;;16.80;10.20;;;;;;;-0.51;87.60;100564.70;211697;1291;140852;-64
2023/01/28 04:52:28;;;;;;;16.90;9.70;;;;;;;-0.52;87.67;100562.58;210542;1291;141023;-64
2023/01/28 04:57:32;;;;;;;18.30;12.20;;;;;;;-0.56;87.65;100566.77;211435;1298;139812;-64
2023/01/28 05:02:36;;;;;;;16.80;9.60;;;;;;;-0.57;87.79;100572.63;212068;1304;140851;-66
2023/01/28 05:07:41;;;;;;;25.30;10.80;;;;;;;-0.58;87.61;100571.71;212471;1300;140651;-67
2023/01/28 05:12:46;;;;;;;20.70;11.60;;;;;;;-0.58;87.87;100571.16;212481;1297;140653;-68
2023/01/28 05:17:50;;;;;;;22.40;12.70;;;;;;;-0.57;88.02;100580.48;212895;1298;141836;-66
2023/01/28 05:22:54;;;;;;;17.00;11.60;;;;;;;-0.59;87.61;100583.48;212125;1300;140300;-67
2023/01/28 05:27:58;;;;;;;20.90;12.90;;;;;;;-0.60;87.83;100588.62;210755;1291;140047;-64
2023/01/28 05:33:02;;;;;;;29.10;11.70;;;;;;;-0.60;88.00;100586.75;211236;1299;140818;-64
2023/01/28 05:38:06;;;;;;;27.70;11.70;;;;;;;-0.59;87.99;100589.77;211039;1290;140603;-65
2023/01/28 05:43:10;;;;;;;21.90;12.20;;;;;;;-0.60;88.28;100595.42;211460;1298;141127;-66
2023/01/28 05:48:15;;;;;;;21.80;12.30;;;;;;;-0.60;88.25;100595.64;210489;1284;140199;-66
2023/01/28 05:53:19;;;;;;;28.10;16.10;;;;;;;-0.60;88.10;100597.69;210914;1297;140975;-66
2023/01/28 05:58:23;;;;;;;24.30;13.70;;;;;;;-0.58;88.28;100598.59;211594;1298;140626;-63
2023/01/28 06:03:25;;;;;;;26.60;16.10;;;;;;;-0.59;88.27;100601.95;211080;1297;140772;-64
2023/01/28 06:08:28;;;;;;;26.70;13.60;;;;;;;-0.61;88.40;100604.06;210702;1294;140300;-66
2023/01/28 06:13:31;;;;;;;27.10;14.40;;;;;;;-0.61;88.35;100607.23;210345;1303;140027;-66
2023/01/28 06:18:35;;;;;;;28.70;16.00;;;;;;;-0.60;88.43;100604.40;211516;1298;141368;-63
2023/01/28 06:23:37;;;;;;;30.00;14.70;;;;;;;-0.59;88.52;100610.00;210543;1291;141224;-65
2023/01/28 06:28:41;;;;;;;34.00;17.10;;;;;;;-0.58;88.54;100617.23;210458;1290;142072;-63
2023/01/28 06:33:44;;;;;;;31.30;16.90;;;;;;;-0.55;88.65;100616.95;210204;1290;140022;-62
2023/01/28 06:38:47;;;;;;;26.30;14.40;;;;;;;-0.56;88.69;100621.27;211840;1291;140195;-64
2023/01/28 06:43:50;;;;;;;22.60;14.60;;;;;;;-0.57;88.42;100625.36;211067;1298;142004;-64
2023/01/28 06:48:53;;;;;;;28.90;15.10;;;;;;;-0.58;88.69;100631.95;211161;1292;140176;-63
2023/01/28 06:53:56;;;;;;;34.90;16.70;;;;;;;-0.59;88.61;100637.90;211007;1298;140027;-65
2023/01/28 06:59:00;;;;;;;31.60;13.20;;;;;;;-0.62;88.58;100644.73;212027;1292;141435;-63
2023/01/28 07:04:05;;;;;;;26.00;14.40;;;;;;;-0.65;88.62;100648.16;211681;1291;140183;-63
2023/01/28 07:09:07;;;;;;;32.10;15.10;;;;;;;-0.63;88.65;100648.16;212406;1298;140776;-63
2023/01/28 07:14:10;;;;;;;36.10;17.10;;;;;;;-0.61;88.88;100653.52;212707;1300;142215;-65
2023/01/28 07:19:13;;;;;;;27.70;15.90;;;;;;;-0.60;88.75;100660.72;211811;1284;141262;-68
2023/01/28 07:24:17;;;;;;;30.70;14.60;;;;;;;-0.55;88.76;100671.25;211804;1298;140460;-62
2023/01/28 07:29:20;;;;;;;26.00;15.00;;;;;;;-0.55;88.55;100669.88;212269;1300;142207;-66
2023/01/28 07:34:24;;;;;;;38.10;20.20;;;;;;;-0.53;88.79;100671.99;211330;1283;140698;-66
2023/01/28 07:39:27;;;;;;;27.10;13.60;;;;;;;-0.51;88.96;100670.70;210234;1284;140483;-65
2023/01/28 07:44:30;;;;;;;32.40;19.40;;;;;;;-0.49;88.64;100676.43;210534;1291;141309;-66
2023/01/28 07:49:34;;;;;;;23.60;13.20;;;;;;;-0.47;88.94;100673.45;210203;1297;140671;-65
2023/01/28 07:54:39;;;;;;;33.80;18.70;;;;;;;-0.47;88.65;100671.55;210753;1291;141054;-63
2023/01/28 07:59:44;;;;;;;21.10;12.40;;;;;;;-0.47;88.70;100673.02;210240;1288;140474;-63
2023/01/28 08:04:47;;;;;;;27.40;13.90;;;;;;;-0.53;88.63;100673.84;210781;1300;140703;-65
2023/01/28 08:09:51;;;;;;;35.70;17.00;;;;;;;-0.52;88.84;100674.80;210284;1290;142341;-64
2023/01/28 08:14:55;;;;;;;28.20;16.00;;;;;;;-0.49;89.09;100676.52;211312;1300;142808;-66
2023/01/28 08:19:59;;;;;;;29.20;15.10;;;;;;;-0.51;88.80;100684.15;210352;1291;141887;-64
2023/01/28 08:25:05;;;;;;;30.20;17.10;;;;;;;-0.48;89.06;100685.47;210840;1299;141485;-62
2023/01/28 08:30:10;;;;;;;25.50;16.70;;;;;;;-0.47;88.79;100682.39;210001;1290;140528;-65
2023/01/28 08:35:14;;;;;;;27.40;18.20;;;;;;;-0.46;88.64;100678.86;210639;1290;141193;-62
2023/01/28 08:40:17;;;;;;;26.60;16.00;;;;;;;-0.44;88.66;100679.33;210112;1288;141535;-63
2023/01/28 08:45:24;;;;;;;22.70;14.90;;;;;;;-0.43;88.84;100682.91;211146;1284;140355;-68
2023/01/28 08:50:34;;;;;;;23.10;13.30;;;;;;;-0.42;88.41;100683.38;210173;1294;608445;-66
2023/01/28 08:55:38;;;;;;;19.00;12.90;;;;;;;-0.42;88.66;100687.12;211514;1300;140799;-64
2023/01/28 09:00:43;;;;;;;23.40;13.50;;;;;;;-0.41;88.36;100690.96;210846;1283;140082;-67
2023/01/28 09:05:45;;;;;;;22.20;13.60;;;;;;;-0.40;88.60;100696.27;211256;1284;139947;-67
2023/01/28 09:10:53;;;;;;;18.30;12.60;;;;;;;-0.36;88.67;100705.52;212945;1301;141058;-66
2023/01/28 09:15:56;;;;;;;23.50;13.40;;;;;;;-0.31;88.34;100709.05;210622;1291;140400;-66
2023/01/28 09:20:59;;;;;;;27.80;14.90;;;;;;;-0.30;87.94;100711.21;209772;1290;141004;-66
2023/01/28 09:26:04;;;;;;;29.40;16.30;;;;;;;-0.30;87.95;100714.06;210361;1290;141261;-63
2023/01/28 09:31:10;;;;;;;25.60;14.30;;;;;;;-0.30;88.35;100715.96;210680;1297;141075;-64
2023/01/28 09:36:15;;;;;;;24.80;15.00;;;;;;;-0.27;88.40;100717.58;209778;1291;141849;-63
2023/01/28 09:41:48;;;;;;;23.00;13.50;;;;;;;-0.26;88.20;100716.11;212625;1284;142051;-64
2023/01/28 09:46:51;;;;;;;25.30;13.60;;;;;;;-0.18;88.59;100717.59;210111;1297;152398;-67
2023/01/28 09:51:55;;;;;;;29.60;15.50;;;;;;;-0.11;88.31;100719.44;210136;1290;141168;-64
2023/01/28 09:57:11;;;;;;;34.00;16.90;;;;;;;-0.05;88.31;100715.14;210695;1292;139980;-65
2023/01/28 10:02:27;;;;;;;33.20;19.90;;;;;;;-0.03;88.06;100717.42;210667;1293;141074;-61
2023/01/28 10:07:54;;;;;;;35.20;18.80;;;;;;;-0.00;88.17;100712.45;210162;1291;140499;-62
2023/01/28 10:13:30;;;;;;;33.90;18.60;;;;;;;0.02;88.07;100718.52;210593;1291;140573;-66
2023/01/28 10:19:16;;;;;;;31.50;17.20;;;;;;;0.06;88.16;100703.64;210007;1290;140899;-66
2023/01/28 10:24:38;;;;;;;32.70;18.10;;;;;;;0.07;88.20;100697.52;210017;1290;140603;-66
2023/01/28 10:29:45;;;;;;;29.90;17.20;;;;;;;0.08;88.29;100694.20;210815;1293;140967;-63
2023/01/28 10:34:50;;;;;;;37.20;20.80;;;;;;;0.10;87.92;100694.97;211960;1291;141994;-65
2023/01/28 10:39:58;;;;;;;31.50;17.30;;;;;;;0.11;87.89;100692.21;211313;1292;141052;-64
2023/01/28 10:45:04;;;;;;;35.20;19.40;;;;;;;0.12;87.79;100689.27;211284;1298;141626;-64
2023/01/28 10:50:17;;;;;;;34.30;18.80;;;;;;;0.16;87.47;100686.50;212217;1293;140941;-61
2023/01/28 10:55:26;;;;;;;34.50;17.30;;;;;;;0.24;88.02;100686.23;211323;1293;143822;-64
2023/01/28 11:00:36;;;;;;;35.00;17.70;;;;;;;0.30;87.60;100688.30;212638;1300;141320;-65
2023/01/28 11:05:50;;;;;;;34.00;18.30;;;;;;;0.37;87.78;100687.12;212190;1298;140269;-67
2023/01/28 11:10:54;;;;;;;49.80;28.70;;;;;;;0.49;87.51;100685.11;211645;1290;141259;-66
2023/01/28 11:16:06;;;;;;;34.90;17.90;;;;;;;0.54;87.26;100680.23;210487;1290;139755;-67
2023/01/28 11:21:29;;;;;;;37.50;20.50;;;;;;;0.60;87.50;100683.50;209961;1291;139367;-66
2023/01/28 11:26:35;;;;;;;33.10;21.50;;;;;;;0.59;87.20;100677.83;210743;1291;140071;-66
2023/01/28 11:31:42;;;;;;;36.60;18.80;;;;;;;0.64;87.27;100674.47;210454;1288;140034;-65
2023/01/28 11:37:02;;;;;;;32.80;17.90;;;;;;;0.63;86.93;100673.41;210148;1290;140392;-65
2023/01/28 11:42:16;;;;;;;33.60;18.70;;;;;;;0.64;87.19;100669.11;210109;1298;140380;-66
2023/01/28 11:47:39;;;;;;;30.60;18.30;;;;;;;0.68;86.99;100668.52;211565;1300;141401;-67
2023/01/28 11:53:03;;;;;;;30.30;15.50;;;;;;;0.71;86.96;100665.63;210073;1290;139665;-66
2023/01/28 11:58:16;;;;;;;30.30;16.70;;;;;;;0.73;86.87;100667.50;210599;1298;139855;-67
2023/01/28 12:03:39;;;;;;;27.80;16.00;;;;;;;0.73;86.81;100665.98;210133;1298;140620;-66
2023/01/28 12:08:53;;;;;;;32.90;18.40;;;;;;;0.68;86.72;100667.33;210298;1293;140860;-63
2023/01/28 12:14:09;;;;;;;27.50;15.80;;;;;;;0.66;86.60;100666.79;210241;1291;139913;-64
2023/01/28 12:19:32;;;;;;;24.90;14.00;;;;;;;0.67;86.67;100664.90;210155;1298;141033;-63
2023/01/28 12:24:52;;;;;;;24.70;16.10;;;;;;;0.66;86.60;100666.98;210047;1298;140429;-64
2023/01/28 12:30:18;;;;;;;24.10;14.00;;;;;;;0.69;86.67;100663.92;210949;1293;141588;-64
2023/01/28 12:35:49;;;;;;;23.90;15.90;;;;;;;0.70;86.64;100657.16;210667;1299;140055;-64
2023/01/28 12:41:06;;;;;;;29.70;16.10;;;;;;;0.69;86.68;100654.27;211540;1299;139556;-64
2023/01/28 12:46:16;;;;;;;;;;;;;;;0.67;86.52;100653.36;211070;1291;140606;-63
2023/01/28 12:51:30;;;;;;;25.50;14.90;;;;;;;0.65;86.29;100659.36;211090;1297;128119;-64
2023/01/28 12:56:40;;;;;;;21.10;13.40;;;;;;;0.65;86.00;100663.17;212230;1301;141048;-64
2023/01/28 13:01:53;;;;;;;23.80;15.10;;;;;;;0.67;85.90;100664.08;212874;1291;141541;-67
2023/01/28 13:07:13;;;;;;;27.40;15.70;;;;;;;0.71;85.96;100671.05;212466;1300;141024;-66
2023/01/28 13:12:22;;;;;;;28.00;15.50;;;;;;;0.70;85.75;100674.30;212870;1301;141257;-66
2023/01/28 13:17:29;;;;;;;26.10;15.70;;;;;;;0.67;85.92;100671.45;212770;1300;141330;-66
2023/01/28 13:22:37;;;;;;;26.50;15.50;;;;;;;0.64;85.31;100674.20;210711;1298;140966;-66
2023/01/28 13:27:41;;;;;;;27.70;16.60;;;;;;;0.60;85.52;100677.35;209703;1300;140193;-65
2023/01/28 13:32:56;;;;;;;28.10;16.30;;;;;;;0.60;85.86;100678.62;210056;1296;141736;-66
2023/01/28 13:38:23;;;;;;;26.20;17.00;;;;;;;0.59;85.39;100676.61;210537;1293;141425;-66
2023/01/28 13:43:38;;;;;;;26.40;17.20;;;;;;;0.58;85.72;100676.04;210157;1296;140353;-65
2023/01/28 13:48:49;;;;;;;30.70;16.70;;;;;;;0.54;85.46;100670.23;210777;1293;140519;-65
2023/01/28 13:54:16;;;;;;;29.40;17.40;;;;;;;0.52;85.47;100679.77;210124;1290;140736;-66
2023/01/28 13:59:50;;;;;;;27.40;15.30;;;;;;;0.47;85.44;100684.37;210349;1291;140397;-66
2023/01/28 14:05:15;;;;;;;36.20;17.80;;;;;;;0.44;85.53;100687.48;210616;1293;140244;-65
2023/01/28 14:10:43;;;;;;;27.40;16.00;;;;;;;0.43;85.67;100689.02;210110;1297;140405;-65
2023/01/28 14:16:05;;;;;;;29.60;18.00;;;;;;;0.43;85.89;100687.59;211435;1306;141074;-65
2023/01/28 14:21:19;;;;;;;27.90;17.30;;;;;;;0.40;85.45;100692.96;210268;1291;141003;-66
2023/01/28 14:26:45;;;;;;;26.80;15.20;;;;;;;0.37;85.31;100697.64;211354;1297;139957;-67
2023/01/28 14:31:51;;;;;;;23.70;14.40;;;;;;;0.31;85.35;100688.48;210162;1291;139973;-63
2023/01/28 14:37:00;;;;;;;36.00;19.60;;;;;;;0.31;85.72;100688.53;211540;1296;139803;-64
2023/01/28 14:42:12;;;;;;;31.30;18.20;;;;;;;0.30;85.58;100688.27;211691;1291;140206;-64
2023/01/28 14:47:39;;;;;;;36.40;20.60;;;;;;;0.32;85.53;100688.61;210161;1298;140427;-64
2023/01/28 14:52:56;;;;;;;38.30;20.50;;;;;;;0.30;85.43;100689.31;212745;1298;140860;-67
2023/01/28 14:58:11;;;;;;;35.90;22.50;;;;;;;0.26;85.47;100688.16;212888;1293;141187;-67
2023/01/28 15:03:18;;;;;;;42.90;24.60;;;;;;;0.25;84.71;100697.19;212841;1291;141201;-67
2023/01/28 15:08:31;;;;;;;42.90;25.60;;;;;;;0.27;85.21;100704.27;211894;1303;140539;-66
2023/01/28 15:13:58;;;;;;;39.30;21.80;;;;;;;0.26;84.97;100707.73;210386;1291;139523;-66
2023/01/28 15:19:02;;;;;;;41.20;23.30;;;;;;;0.19;84.93;100702.47;210637;1298;140119;-66
2023/01/28 15:24:05;;;;;;;36.70;21.30;;;;;;;0.13;84.64;100713.30;210276;1291;139635;-64
2023/01/28 15:29:23;;;;;;;29.50;18.70;;;;;;;0.10;85.16;100718.34;212057;1300;141590;-64
2023/01/28 15:34:29;;;;;;;33.10;20.00;;;;;;;0.08;85.29;100712.77;211290;1298;140350;-64
2023/01/28 15:39:36;;;;;;;33.00;19.80;;;;;;;0.02;85.30;100717.02;211170;1297;140144;-65
2023/01/28 15:44:47;;;;;;;37.60;22.70;;;;;;;-0.03;85.32;100725.35;210266;1296;140146;-66
2023/01/28 15:49:58;;;;;;;29.00;18.20;;;;;;;-0.06;85.03;100719.52;210257;1297;140933;-65
2023/01/28 15:55:05;;;;;;;32.70;19.10;;;;;;;-0.05;85.13;100726.23;210689;1301;140464;-66
2023/01/28 16:00:18;;;;;;;29.10;18.30;;;;;;;-0.06;84.70;100723.64;210371;1297;140391;-66
2023/01/28 16:05:37;;;;;;;29.20;18.60;;;;;;;-0.09;84.74;100727.46;210504;1298;139494;-65
2023/01/28 16:10:40;;;;;;;;;;;;;;;-0.13;84.95;100725.78;210051;1298;140480;-66
2023/01/28 16:15:53;;;;;;;28.00;17.00;;;;;;;-0.20;84.68;100733.08;210057;1297;125537;-66
2023/01/28 16:20:58;;;;;;;26.50;16.20;;;;;;;-0.24;85.08;100732.52;210132;1293;140349;-65
2023/01/28 16:26:23;;;;;;;29.80;15.90;;;;;;;-0.25;84.43;100732.73;211412;1297;141738;-65
2023/01/28 16:31:25;;;;;;;30.50;16.40;;;;;;;-0.23;84.51;100730.02;211350;1298;140199;-69
2023/01/28 16:36:29;;;;;;;24.90;15.00;;;;;;;-0.28;84.24;100738.63;212022;1290;140430;-66
2023/01/28 16:41:38;;;;;;;26.60;15.60;;;;;;;-0.35;84.43;100742.73;211755;1298;140015;-67
2023/01/28 16:46:42;;;;;;;25.40;15.40;;;;;;;-0.38;84.17;100742.67;212667;1296;139223;-66
2023/01/28 16:51:45;;;;;;;22.00;13.50;;;;;;;-0.31;84.19;100744.39;211238;1294;140827;-66
2023/01/28 16:56:49;;;;;;;23.20;13.80;;;;;;;-0.31;84.06;100739.28;211159;1297;140081;-67
2023/01/28 17:01:58;;;;;;;22.70;14.50;;;;;;;-0.31;83.98;100734.23;211522;1297;140756;-67
2023/01/28 17:07:01;;;;;;;21.90;12.60;;;;;;;-0.38;83.84;100738.66;211619;1296;139498;-67
2023/01/28 17:12:05;;;;;;;18.80;11.80;;;;;;;-0.38;83.77;100741.50;211072;1298;140393;-66
2023/01/28 17:17:17;;;;;;;18.70;12.10;;;;;;;-0.37;83.97;100740.50;211663;1298;142332;-66
2023/01/28 17:22:20;;;;;;;18.40;13.50;;;;;;;-0.36;83.88;100739.23;210261;1304;140712;-67
2023/01/28 17:27:23;;;;;;;22.90;13.80;;;;;;;-0.39;83.99;100741.34;209670;1298;140501;-66
2023/01/28 17:32:26;;;;;;;20.20;12.80;;;;;;;-0.40;84.17;100740.92;209681;1293;140027;-66
2023/01/28 17:37:28;;;;;;;17.60;11.00;;;;;;;-0.41;83.83;100747.56;210227;1298;139820;-65
2023/01/28 17:42:33;;;;;;;28.40;13.20;;;;;;;-0.38;83.67;100737.25;211010;1306;140072;-65
2023/01/28 17:47:36;;;;;;;46.70;17.90;;;;;;;-0.37;83.38;100740.89;210194;1290;140022;-64
2023/01/28 17:52:39;;;;;;;42.90;19.50;;;;;;;-0.37;83.75;100755.89;210308;1297;139622;-64
2023/01/28 17:57:43;;;;;;;53.10;19.80;;;;;;;-0.36;83.95;100759.80;210291;1297;140072;-64
2023/01/28 18:02:49;;;;;;;53.60;22.10;;;;;;;-0.43;83.92;100771.25;210141;1298;140170;-64
2023/01/28 18:07:53;;;;;;;28.80;17.00;;;;;;;-0.49;83.48;100776.39;210614;1290;140305;-65
2023/01/28 18:12:56;;;;;;;25.80;16.50;;;;;;;-0.51;83.33;100785.94;211270;1297;141322;-65
2023/01/28 18:18:00;;;;;;;28.80;15.70;;;;;;;-0.47;83.58;100789.58;210370;1300;140068;-64
2023/01/28 18:23:03;;;;;;;32.00;16.00;;;;;;;-0.47;83.63;100791.70;210680;1301;140593;-64
2023/01/28 18:28:07;;;;;;;26.90;15.20;;;;;;;-0.47;84.01;100803.23;210944;1297;139386;-65
2023/01/28 18:33:10;;;;;;;28.10;15.70;;;;;;;-0.47;83.68;100798.54;212072;1304;140855;-65
2023/01/28 18:38:14;;;;;;;25.90;14.70;;;;;;;-0.50;83.69;100798.06;212962;1297;140080;-64
2023/01/28 18:43:17;;;;;;;27.00;14.10;;;;;;;-0.47;83.41;100799.08;212883;1298;141928;-67
2023/01/28 18:48:19;;;;;;;18.50;10.40;;;;;;;-0.44;83.36;100801.05;212904;1298;140831;-67
2023/01/28 18:53:24;;;;;;;18.10;10.60;;;;;;;-0.43;83.34;100800.78;212857;1297;140724;-67
2023/01/28 18:58:27;;;;;;;15.30;10.90;;;;;;;-0.45;82.99;100798.54;212831;1306;140697;-67
2023/01/28 19:03:30;;;;;;;16.00;10.00;;;;;;;-0.50;82.67;100798.09;212851;1300;139791;-67
2023/01/28 19:08:34;;;;;;;19.80;11.30;;;;;;;-0.47;82.61;100795.76;209863;1296;141498;-66
2023/01/28 19:13:42;;;;;;;17.70;9.70;;;;;;;-0.44;82.49;100797.71;210476;1296;141431;-67
2023/01/28 19:19:00;;;;;;;15.90;9.00;;;;;;;-0.50;82.22;100799.84;210762;1297;139432;-63
2023/01/28 19:24:08;;;;;;;13.40;7.80;;;;;;;-0.57;82.25;100807.32;210388;1297;139994;-62
2023/01/28 19:29:15;;;;;;;13.90;9.40;;;;;;;-0.61;82.51;100813.45;211205;1296;140602;-63
2023/01/28 19:34:20;;;;;;;14.00;9.20;;;;;;;-0.66;82.24;100817.19;210615;1294;139340;-63
2023/01/28 19:39:25;;;;;;;13.40;9.10;;;;;;;-0.69;81.62;100810.09;210528;1290;140276;-64
2023/01/28 19:44:32;;;;;;;14.10;10.10;;;;;;;-0.71;81.56;100803.63;210796;1298;140307;-64
2023/01/28 19:49:36;;;;;;;12.70;8.20;;;;;;;-0.77;81.03;100802.42;210279;1293;140620;-63
2023/01/28 19:54:42;;;;;;;16.10;8.70;;;;;;;-0.81;81.09;100807.34;210492;1292;140705;-62
2023/01/28 19:59:45;;;;;;;9.20;6.90;;;;;;;-0.87;80.92;100814.63;210323;1301;139492;-62
2023/01/28 20:04:48;;;;;;;11.20;6.20;;;;;;;-0.88;80.72;100818.41;211558;1291;140693;-64
2023/01/28 20:10:06;;;;;;;12.00;7.60;;;;;;;-0.89;80.31;100820.11;211207;1292;140507;-64
2023/01/28 20:15:13;;;;;;;9.80;6.50;;;;;;;-0.94;80.39;100824.73;211565;1297;139808;-64
2023/01/28 20:20:18;;;;;;;11.50;5.80;;;;;;;-0.97;80.09;100820.63;212252;1306;141205;-64
2023/01/28 20:25:22;;;;;;;9.60;6.30;;;;;;;-1.00;79.70;100826.11;211210;1303;140130;-65
2023/01/28 20:30:25;;;;;;;10.80;7.90;;;;;;;-1.02;79.58;100847.02;212481;1294;139403;-64
2023/01/28 20:35:28;;;;;;;12.20;9.00;;;;;;;-1.03;79.44;100857.26;212721;1300;141124;-64
2023/01/28 20:40:31;;;;;;;8.40;6.10;;;;;;;-1.05;79.38;100854.08;212948;1304;139539;-64
2023/01/28 20:45:34;;;;;;;5.20;3.80;;;;;;;-1.07;79.14;100857.57;212167;1306;488497;-68
2023/01/28 20:50:38;;;;;;;7.10;5.50;;;;;;;-1.11;78.71;100872.23;209910;1301;139186;-67
2023/01/28 20:55:42;;;;;;;7.80;6.20;;;;;;;-1.11;78.37;100872.28;210866;1289;140883;-66
2023/01/28 21:00:50;;;;;;;7.50;6.20;;;;;;;-1.17;78.40;100873.29;210378;1290;139857;-64
2023/01/28 21:05:54;;;;;;;7.70;6.20;;;;;;;-1.26;78.23;100875.79;209795;1297;139283;-63
2023/01/28 21:11:01;;;;;;;12.00;6.30;;;;;;;-1.29;78.17;100876.26;212782;1301;140535;-66
2023/01/28 21:16:05;;;;;;;8.00;4.90;;;;;;;-1.37;78.03;100877.65;211299;1301;140611;-66
2023/01/28 21:21:24;;;;;;;9.50;6.10;;;;;;;-1.45;77.88;100862.63;211511;1291;139693;-64
2023/01/28 21:26:27;;;;;;;8.00;6.20;;;;;;;-1.45;77.60;100858.94;210838;1298;141136;-64
2023/01/28 21:31:30;;;;;;;7.80;5.30;;;;;;;-1.44;77.69;100860.27;209919;1290;140485;-65
2023/01/28 21:36:35;;;;;;;7.40;4.70;;;;;;;-1.47;77.59;100852.17;212227;1303;139380;-66
2023/01/28 21:41:39;;;;;;;8.00;5.70;;;;;;;-1.46;77.45;100852.93;209970;1291;140007;-65
2023/01/28 21:46:42;;;;;;;5.70;4.90;;;;;;;-1.45;77.57;100842.36;211704;1290;138897;-63
2023/01/28 21:51:46;;;;;;;6.50;5.00;;;;;;;-1.46;77.69;100828.48;210063;1290;140163;-65
2023/01/28 21:56:50;;;;;;;8.20;4.90;;;;;;;-1.39;77.64;100827.95;210868;1298;140357;-65
2023/01/28 22:02:01;;;;;;;7.20;4.50;;;;;;;-1.38;77.56;100817.02;210459;1298;139880;-65
2023/01/28 22:07:09;;;;;;;6.90;5.10;;;;;;;-1.38;77.39;100812.34;211468;1298;139278;-67
2023/01/28 22:12:20;;;;;;;8.70;5.30;;;;;;;-1.41;77.50;100807.87;210987;1297;141412;-67
2023/01/28 22:17:25;;;;;;;7.10;4.30;;;;;;;-1.42;77.27;100804.50;210410;1298;139483;-66
2023/01/28 22:22:28;;;;;;;4.80;4.30;;;;;;;-1.45;77.32;100815.14;212535;1297;140010;-65
2023/01/28 22:27:33;;;;;;;4.60;4.00;;;;;;;-1.46;77.26;100805.67;211282;1297;139132;-66
2023/01/28 22:32:38;;;;;;;5.80;3.80;;;;;;;-1.42;77.10;100807.59;210615;1298;211782;-65
2023/01/28 22:37:41;;;;;;;5.80;5.30;;;;;;;-1.40;76.97;100816.02;212859;1290;140278;-66
2023/01/28 22:42:45;;;;;;;4.20;3.50;;;;;;;-1.41;76.78;100809.62;211716;1291;140096;-66
2023/01/28 22:47:49;;;;;;;7.60;3.40;;;;;;;-1.42;76.92;100801.45;210107;1296;139066;-63
2023/01/28 22:52:53;;;;;;;7.80;4.10;;;;;;;-1.44;76.48;100809.30;212882;1300;139841;-64
2023/01/28 22:57:59;;;;;;;8.20;4.90;;;;;;;-1.41;76.61;100807.38;210674;1299;244163;-65
2023/01/28 23:03:02;;;;;;;5.80;5.10;;;;;;;-1.39;76.54;100812.61;211917;1300;139473;-64
2023/01/28 23:08:11;;;;;;;5.00;4.50;;;;;;;-1.43;76.61;100815.86;210039;1297;139033;-65
2023/01/28 23:13:17;;;;;;;9.40;4.80;;;;;;;-1.47;76.37;100817.47;210800;1296;139391;-66
2023/01/28 23:29:11;;;;;;;8.10;5.20;;;;;;;-1.55;76.27;100823.78;211125;1292;140046;-63
2023/01/28 23:34:16;;;;;;;89.90;39.50;;;;;;;-1.58;76.38;100813.38;211087;1284;139400;-65
2023/01/28 23:39:19;;;;;;;45.80;19.00;;;;;;;-1.61;76.19;100809.08;209885;1297;139640;-64